Time;durP1;ratioP1;P1;durP2;ratioP2;P2;SDS_P1;SDS_P2;PMS_P1;PMS_P2;Temp;Humidity;BMP_temperature;BMP_pressure;BME280_temperature;BME280_humidity;BME280_pressure;Samples;Min_cycle;Max_cycle;Signal;HPM_P1;HPM_P2
2023/03/14 00:01:20;;;;;;;5.32;3.70;;;;;;;-3.05;71.86;146576.81;5020678;28;20333;-67
2023/03/14 00:03:45;;;;;;;9.18;3.42;;;;;;;-2.82;71.47;146632.56;5010221;28;20026;-68
2023/03/14 00:06:12;;;;;;;5.47;3.42;;;;;;;-2.65;72.13;146675.72;5017937;28;20098;-68
2023/03/14 00:08:38;;;;;;;7.75;4.95;;;;;;;-2.78;71.25;146642.72;5012199;28;20341;-67
2023/03/14 00:11:15;;;;;;;6.03;3.53;;;;;;;-2.73;71.17;146654.19;5016004;28;20046;-68
2023/03/14 00:13:40;;;;;;;7.28;3.83;;;;;;;-2.65;71.88;146674.44;5018397;28;20038;-67
2023/03/14 00:16:29;;;;;;;7.95;3.78;;;;;;;-2.75;70.38;146650.38;5012242;28;20129;-67
2023/03/14 00:19:01;;;;;;;4.95;3.20;;;;;;;-2.82;71.19;146632.56;5018256;28;20377;-67
2023/03/14 00:21:29;;;;;;;7.72;3.92;;;;;;;-2.84;71.54;146627.53;5020051;28;20028;-68
2023/03/14 00:24:08;;;;;;;13.40;4.00;;;;;;;-2.69;70.82;146665.56;5017042;28;20022;-68
2023/03/14 00:26:33;;;;;;;8.20;3.30;;;;;;;-2.85;71.81;146626.28;5013583;28;20046;-68
2023/03/14 00:29:17;;;;;;;6.50;3.33;;;;;;;-2.81;71.15;146636.44;5017724;28;20065;-68
2023/03/14 00:31:43;;;;;;;5.85;3.20;;;;;;;-2.75;71.69;146649.09;5020795;28;20026;-67
2023/03/14 00:34:08;;;;;;;6.38;3.35;;;;;;;-2.82;71.61;146633.88;5013826;28;20037;-67
2023/03/14 00:36:34;;;;;;;5.35;3.38;;;;;;;-2.72;71.24;146657.97;5019945;28;20044;-67
2023/03/14 00:38:59;;;;;;;6.70;3.40;;;;;;;-2.63;71.53;146680.78;5012635;28;20168;-68
2023/03/14 00:41:28;;;;;;;6.57;3.22;;;;;;;-2.47;71.21;146718.84;5014847;28;20033;-68
2023/03/14 00:43:56;;;;;;;6.63;3.15;;;;;;;-2.41;70.98;146732.81;5021337;28;20034;-67
2023/03/14 00:46:25;;;;;;;6.72;2.67;;;;;;;-2.46;70.32;146721.41;5015868;28;20033;-67
2023/03/14 00:48:50;;;;;;;4.82;2.72;;;;;;;-2.56;70.88;146697.28;5032153;28;20041;-68
2023/03/14 00:51:25;;;;;;;4.53;2.83;;;;;;;-2.59;71.47;146689.69;5007902;28;20227;-66
2023/03/14 00:54:02;;;;;;;6.05;3.30;;;;;;;-2.52;71.23;146707.44;5018843;28;20032;-67
2023/03/14 00:56:34;;;;;;;7.32;3.00;;;;;;;-2.56;71.39;146697.28;5021179;28;20258;-66
2023/03/14 00:58:59;;;;;;;7.20;2.72;;;;;;;-2.46;71.26;146722.66;5015623;28;20033;-68
2023/03/14 01:01:25;;;;;;;9.25;2.88;;;;;;;-2.56;71.78;146697.28;5008036;28;20034;-69
2023/03/14 01:03:52;;;;;;;4.35;2.85;;;;;;;-2.62;72.57;146682.09;5020206;28;20057;-67
2023/03/14 01:06:21;;;;;;;5.15;2.75;;;;;;;-2.61;72.77;146684.59;5019592;28;20168;-68
2023/03/14 01:08:47;;;;;;;6.15;2.85;;;;;;;-2.66;73.42;146673.19;5013079;28;20125;-67
2023/03/14 01:11:21;;;;;;;4.53;2.83;;;;;;;-2.74;73.45;146651.63;5015209;28;20038;-69
2023/03/14 01:13:47;;;;;;;7.85;2.85;;;;;;;-2.54;73.73;146701.09;5006611;28;20037;-67
2023/03/14 01:16:19;;;;;;;4.40;2.53;;;;;;;-2.51;74.26;146708.69;5012747;28;20032;-70
2023/03/14 01:18:46;;;;;;;6.55;2.63;;;;;;;-2.50;74.32;146712.50;5017824;28;20026;-69
2023/03/14 01:21:38;;;;;;;4.85;2.45;;;;;;;-2.53;74.66;146703.63;5010089;28;20034;-68
2023/03/14 01:24:10;;;;;;;5.95;3.22;;;;;;;-2.98;75.52;146593.28;5017766;28;20065;-68
2023/03/14 01:26:36;;;;;;;6.28;2.70;;;;;;;-2.49;75.40;146713.78;5015082;28;20022;-66
2023/03/14 01:29:11;;;;;;;10.45;2.80;;;;;;;-2.54;75.33;146701.09;5013618;28;20203;-67
2023/03/14 01:31:37;;;;;;;4.75;2.60;;;;;;;-2.57;76.56;146693.50;5024728;28;20309;-67
2023/03/14 01:34:08;;;;;;;7.47;3.38;;;;;;;-2.42;77.12;146731.56;5024875;28;20032;-67
2023/03/14 01:36:34;;;;;;;;;;;;;;;-2.34;78.44;146751.81;5033337;28;20026;-66
2023/03/14 01:39:17;;;;;;;5.20;3.40;;;;;;;-2.44;78.58;146726.44;5023994;28;19976;-67
2023/03/14 01:41:46;;;;;;;9.40;3.22;;;;;;;-2.51;79.78;146710.00;5033299;28;20052;-68
2023/03/14 01:44:12;;;;;;;7.88;3.03;;;;;;;-2.54;80.81;146702.34;5024172;28;20190;-68
2023/03/14 01:46:43;;;;;;;5.75;3.25;;;;;;;-2.61;81.40;146685.88;5022929;28;20302;-69
2023/03/14 01:49:26;;;;;;;5.75;2.97;;;;;;;-2.41;81.26;146734.06;5017611;28;20041;-68
2023/03/14 01:52:07;;;;;;;5.13;2.90;;;;;;;-2.60;83.07;146688.38;5023774;28;20046;-67
2023/03/14 01:54:55;;;;;;;7.35;3.60;;;;;;;-2.48;83.04;146717.59;5033555;28;20242;-68
2023/03/14 01:57:25;;;;;;;4.68;3.08;;;;;;;-2.46;83.31;146722.66;5023299;28;20281;-68
2023/03/14 02:00:11;;;;;;;6.07;3.50;;;;;;;-2.42;84.03;146731.56;5014541;28;20334;-68
2023/03/14 02:02:39;;;;;;;7.50;3.22;;;;;;;-2.54;84.78;146701.09;5024274;28;20038;-67
2023/03/14 02:05:05;;;;;;;6.15;3.38;;;;;;;-2.33;84.84;146754.38;5019628;28;20258;-68
2023/03/14 02:07:53;;;;;;;5.07;3.13;;;;;;;-2.55;85.18;146699.84;5019247;28;20030;-68
2023/03/14 02:10:22;;;;;;;6.78;3.55;;;;;;;-2.44;85.96;146726.44;5009308;28;20097;-67
2023/03/14 02:12:49;;;;;;;6.07;3.50;;;;;;;-2.49;86.66;146713.78;5014433;28;20034;-67
2023/03/14 02:15:15;;;;;;;7.03;3.25;;;;;;;-2.42;87.01;146731.56;5023780;28;20038;-69
2023/03/14 02:17:45;;;;;;;7.25;3.83;;;;;;;-2.44;87.61;146726.44;5014378;28;20081;-69
2023/03/14 02:20:23;;;;;;;4.88;3.40;;;;;;;-2.53;87.95;146704.91;5006714;28;20030;-67
2023/03/14 02:22:57;;;;;;;6.85;3.75;;;;;;;-2.35;88.22;146749.31;5015276;28;20126;-68
2023/03/14 02:25:48;;;;;;;5.43;3.80;;;;;;;-2.41;87.99;146734.06;5022847;28;20100;-67
2023/03/14 02:28:23;;;;;;;6.80;4.00;;;;;;;-2.22;87.81;146779.72;5007860;28;20044;-68
2023/03/14 02:30:51;;;;;;;6.40;4.22;;;;;;;-2.17;88.21;146793.69;5024779;28;20040;-67
2023/03/14 02:33:26;;;;;;;7.55;4.28;;;;;;;-2.35;89.36;146748.00;5028328;28;20033;-68
2023/03/14 02:36:04;;;;;;;6.40;4.07;;;;;;;-2.41;89.84;146734.06;5012679;28;20053;-67
2023/03/14 02:39:11;;;;;;;8.40;5.38;;;;;;;-2.15;89.83;146798.78;5020696;28;20060;-66
2023/03/14 02:41:41;;;;;;;7.28;4.65;;;;;;;-2.24;91.07;146774.69;5014050;28;20084;-67
2023/03/14 02:44:13;;;;;;;7.88;4.60;;;;;;;-2.18;92.82;146789.88;5018429;28;20041;-68
2023/03/14 02:46:47;;;;;;;7.40;5.53;;;;;;;-2.19;93.33;146788.63;5021140;28;20097;-67
2023/03/14 02:49:22;;;;;;;12.10;6.35;;;;;;;-2.13;93.29;146802.59;5014332;28;20109;-68
2023/03/14 02:51:48;;;;;;;8.60;5.75;;;;;;;-2.17;94.05;146793.69;5019678;28;20042;-68
2023/03/14 02:54:15;;;;;;;7.70;5.70;;;;;;;-2.17;94.61;146792.44;5010945;28;20054;-66
2023/03/14 02:56:41;;;;;;;8.10;5.40;;;;;;;-2.06;94.62;146819.09;5019644;28;20069;-67
2023/03/14 02:59:07;;;;;;;11.80;6.10;;;;;;;-1.98;94.46;146839.38;5018621;28;20247;-68
2023/03/14 03:01:33;;;;;;;10.38;6.25;;;;;;;-2.13;95.01;146802.59;5016080;28;20048;-67
2023/03/14 03:03:59;;;;;;;8.15;6.30;;;;;;;-2.06;95.51;146820.34;5021395;28;20276;-67
2023/03/14 03:06:25;;;;;;;12.95;6.47;;;;;;;-1.97;95.24;146843.19;5010752;28;20028;-69
2023/03/14 03:09:08;;;;;;;10.35;6.43;;;;;;;-1.92;95.53;146854.63;5019237;28;20239;-67
2023/03/14 03:11:43;;;;;;;14.57;8.82;;;;;;;-1.86;94.64;146868.59;5014611;28;20093;-68
2023/03/14 03:14:08;;;;;;;10.57;6.90;;;;;;;-1.76;95.26;146895.22;5015137;28;20026;-68
2023/03/14 03:16:34;;;;;;;11.15;7.28;;;;;;;-1.78;95.27;146888.88;5022443;28;20077;-68
2023/03/14 03:18:59;;;;;;;11.15;6.80;;;;;;;-1.79;94.73;146886.38;5002300;28;20068;-69
2023/03/14 03:21:25;;;;;;;10.90;6.90;;;;;;;-1.71;94.86;146905.38;5016939;28;20029;-70
2023/03/14 03:23:51;;;;;;;12.45;7.13;;;;;;;-1.66;95.03;146919.34;5019233;28;20049;-69
2023/03/14 03:26:16;;;;;;;10.77;7.57;;;;;;;-1.64;95.64;146923.16;5017698;28;20088;-68
2023/03/14 03:28:42;;;;;;;13.30;7.40;;;;;;;-1.54;94.77;146947.28;5021784;28;20291;-68
2023/03/14 03:31:11;;;;;;;13.82;7.43;;;;;;;-1.49;94.11;146961.25;5017363;28;20067;-67
2023/03/14 03:33:38;;;;;;;9.25;6.38;;;;;;;-1.34;93.74;146998.09;5025448;28;20034;-67
2023/03/14 03:36:13;;;;;;;10.98;6.82;;;;;;;-1.43;93.50;146975.22;5018862;28;20080;-67
2023/03/14 03:38:39;;;;;;;9.50;6.20;;;;;;;-1.40;93.88;146982.84;5011994;28;20034;-68
2023/03/14 03:41:10;;;;;;;8.70;6.32;;;;;;;-1.37;93.40;146989.19;5018694;28;20098;-68
2023/03/14 03:43:42;;;;;;;8.35;6.72;;;;;;;-1.38;94.27;146987.94;5013211;28;20026;-68
2023/03/14 03:46:19;;;;;;;10.57;7.30;;;;;;;-1.31;94.08;147004.41;5018171;28;20068;-68
2023/03/14 03:48:45;;;;;;;11.80;7.25;;;;;;;-1.37;93.42;146989.19;5035006;28;20032;-68
2023/03/14 03:51:15;;;;;;;13.63;7.07;;;;;;;-1.33;94.48;146999.34;5016315;28;20025;-67
2023/03/14 03:53:41;;;;;;;9.45;7.20;;;;;;;-1.16;93.46;147041.28;5015149;28;20054;-69
2023/03/14 03:56:21;;;;;;;14.73;7.65;;;;;;;-1.15;94.30;147043.81;5011685;28;20191;-68
2023/03/14 03:58:47;;;;;;;10.82;7.75;;;;;;;-1.09;94.25;147059.03;5004080;28;20076;-67
2023/03/14 04:01:13;;;;;;;9.15;6.97;;;;;;;-1.08;93.55;147061.59;5003596;28;20026;-68
2023/03/14 04:03:38;;;;;;;9.25;7.13;;;;;;;-1.10;93.60;147057.78;5023486;28;20089;-68
2023/03/14 04:06:15;;;;;;;8.05;6.28;;;;;;;-1.03;93.75;147074.28;5013924;28;20037;-68
2023/03/14 04:08:41;;;;;;;9.43;6.90;;;;;;;-1.03;93.67;147074.28;5018134;28;20042;-69
2023/03/14 04:11:06;;;;;;;9.38;6.85;;;;;;;-1.02;93.79;147076.81;5022197;28;20033;-70
2023/03/14 04:13:32;;;;;;;10.32;7.05;;;;;;;-0.88;93.08;147111.13;5014875;28;20057;-68
2023/03/14 04:16:09;;;;;;;9.10;6.63;;;;;;;-0.89;93.78;147109.84;5033214;28;20334;-68
2023/03/14 04:18:35;;;;;;;9.90;6.95;;;;;;;-0.93;93.67;147099.66;5025379;28;20029;-67
2023/03/14 04:21:00;;;;;;;9.98;6.78;;;;;;;-0.88;93.83;147112.38;5020137;28;20198;-67
2023/03/14 04:23:26;;;;;;;11.40;6.82;;;;;;;-0.92;94.54;147102.22;5020595;28;20280;-67
2023/03/14 04:25:52;;;;;;;9.27;6.78;;;;;;;-0.91;94.93;147104.78;5017175;28;20042;-69
2023/03/14 04:28:21;;;;;;;9.27;6.55;;;;;;;-0.97;95.46;147088.25;5025716;28;20095;-70
2023/03/14 04:30:46;;;;;;;8.38;6.90;;;;;;;-0.75;94.93;147142.91;5012904;28;20100;-69
2023/03/14 04:33:16;;;;;;;8.48;6.22;;;;;;;-0.76;94.17;147141.59;5017564;28;20025;-69
2023/03/14 04:35:43;;;;;;;9.27;6.28;;;;;;;-0.74;94.67;147145.41;5019065;28;20069;-66
2023/03/14 04:38:08;;;;;;;8.48;6.22;;;;;;;-0.90;95.31;147106.03;5024799;28;20041;-68
2023/03/14 04:40:37;;;;;;;9.68;6.82;;;;;;;-0.71;95.40;147154.31;5006936;28;20350;-68
2023/03/14 04:43:02;;;;;;;7.85;6.00;;;;;;;-0.60;94.80;147181.03;5025568;28;20026;-69
2023/03/14 04:45:31;;;;;;;9.18;5.78;;;;;;;-0.59;95.02;147183.53;5010434;28;20080;-68
2023/03/14 04:47:59;;;;;;;7.57;6.00;;;;;;;-0.52;94.48;147200.06;5017845;28;20373;-67
2023/03/14 04:50:25;;;;;;;7.78;5.85;;;;;;;-0.54;94.05;147195.00;5018940;28;20034;-67
2023/03/14 04:52:50;;;;;;;8.60;6.82;;;;;;;-0.46;94.40;147214.03;5014506;28;20032;-67
2023/03/14 04:55:16;;;;;;;7.68;6.07;;;;;;;-0.37;94.28;147236.88;5019398;28;20033;-67
2023/03/14 04:57:41;;;;;;;7.82;5.90;;;;;;;-0.33;94.19;147245.81;5009209;28;20034;-68
2023/03/14 05:00:09;;;;;;;9.25;6.38;;;;;;;-0.23;94.83;147272.53;5017244;28;20048;-67
2023/03/14 05:02:35;;;;;;;7.43;5.88;;;;;;;-0.22;94.56;147275.03;5025114;28;20025;-68
2023/03/14 05:05:00;;;;;;;9.23;6.20;;;;;;;-0.12;93.67;147297.94;5022222;28;20030;-67
2023/03/14 05:07:26;;;;;;;9.93;6.55;;;;;;;-0.24;94.91;147269.97;5005006;28;20089;-68
2023/03/14 05:09:54;;;;;;;8.57;6.30;;;;;;;-0.22;95.24;147273.78;5011134;28;20030;-69
2023/03/14 05:12:23;;;;;;;7.82;6.18;;;;;;;-0.26;95.31;147263.59;5018321;28;20370;-68
2023/03/14 05:14:48;;;;;;;9.23;6.22;;;;;;;-0.20;95.16;147280.13;5013349;28;20393;-71
2023/03/14 05:17:14;;;;;;;8.18;6.57;;;;;;;-0.09;95.73;147306.81;5020087;28;20042;-68
2023/03/14 05:19:40;;;;;;;8.23;6.70;;;;;;;-0.07;95.94;147311.91;5005289;28;20142;-66
2023/03/14 05:22:10;;;;;;;8.95;6.53;;;;;;;-0.02;95.17;147323.34;5023407;28;20030;-68
2023/03/14 05:24:36;;;;;;;7.75;6.65;;;;;;;-0.04;95.37;147318.28;5019480;28;20030;-67
2023/03/14 05:27:05;;;;;;;9.18;6.85;;;;;;;-0.01;95.44;147325.91;5030823;28;20025;-67
2023/03/14 05:29:33;;;;;;;8.52;6.75;;;;;;;0.09;95.54;147351.31;5036793;28;20034;-68
2023/03/14 05:32:02;;;;;;;9.43;6.40;;;;;;;0.14;95.37;147364.06;5032256;28;20176;-66
2023/03/14 05:34:34;;;;;;;7.88;6.30;;;;;;;0.31;94.72;147404.72;5004545;28;20040;-66
2023/03/14 05:37:04;;;;;;;8.20;6.80;;;;;;;0.36;94.22;147416.16;5023042;28;20093;-67
2023/03/14 05:39:33;;;;;;;8.82;6.43;;;;;;;0.32;94.49;147407.28;5039053;28;20044;-67
2023/03/14 05:41:58;;;;;;;8.27;6.10;;;;;;;0.28;94.00;147398.34;5043388;28;20222;-67
2023/03/14 05:44:24;;;;;;;7.95;6.03;;;;;;;0.32;93.96;147407.28;5037422;28;20234;-66
2023/03/14 05:46:49;;;;;;;9.23;6.28;;;;;;;0.42;93.45;147431.44;5022949;28;20057;-68
2023/03/14 05:49:15;;;;;;;6.93;5.55;;;;;;;0.46;93.09;147441.63;5004271;28;20247;-67
2023/03/14 05:51:40;;;;;;;8.52;5.65;;;;;;;0.56;93.73;147467.06;5020609;28;20136;-68
2023/03/14 05:54:06;;;;;;;8.40;6.40;;;;;;;0.60;93.55;147477.25;5011788;28;20100;-69
2023/03/14 05:56:32;;;;;;;8.40;5.93;;;;;;;0.70;92.98;147501.41;5010267;28;20037;-68
2023/03/14 05:58:58;;;;;;;9.70;6.00;;;;;;;0.75;93.43;147512.84;5021067;28;20029;-67
2023/03/14 06:01:23;;;;;;;7.40;5.45;;;;;;;0.78;92.06;147521.72;5004390;28;20026;-68
2023/03/14 06:03:49;;;;;;;6.15;4.93;;;;;;;0.77;91.28;147517.91;5021167;28;20088;-69
2023/03/14 06:06:16;;;;;;;7.85;5.10;;;;;;;0.89;90.61;147548.47;5024003;28;20022;-69
2023/03/14 06:08:42;;;;;;;6.68;5.35;;;;;;;0.96;90.40;147566.28;5016167;28;20106;-69
2023/03/14 06:11:08;;;;;;;8.32;4.90;;;;;;;1.03;90.19;147584.09;5007316;28;20025;-69
2023/03/14 06:13:33;;;;;;;6.40;4.93;;;;;;;1.09;90.55;147596.84;5024270;28;20044;-69
2023/03/14 06:15:59;;;;;;;6.43;5.10;;;;;;;1.14;89.80;147609.53;5005372;28;20238;-68
2023/03/14 06:18:24;;;;;;;7.95;5.20;;;;;;;1.14;89.12;147610.84;5004220;28;20026;-69
2023/03/14 06:20:54;;;;;;;5.97;4.88;;;;;;;1.09;88.51;147596.84;5013337;28;20070;-69
2023/03/14 06:23:20;;;;;;;7.53;5.00;;;;;;;1.27;89.27;147642.66;5021896;28;20041;-70
2023/03/14 06:25:45;;;;;;;7.15;4.90;;;;;;;1.35;88.79;147663.03;5020652;28;20025;-69
2023/03/14 06:28:11;;;;;;;8.38;5.15;;;;;;;1.45;87.76;147687.16;5004115;28;20053;-69
2023/03/14 06:30:36;;;;;;;6.93;4.75;;;;;;;1.52;87.25;147704.97;5021590;28;20033;-70
2023/03/14 06:33:02;;;;;;;6.40;4.50;;;;;;;1.65;86.95;147735.56;5033185;28;20025;-70
2023/03/14 06:35:28;;;;;;;7.82;4.97;;;;;;;1.62;86.13;147727.91;5017968;28;20041;-69
2023/03/14 06:37:53;;;;;;;8.88;5.15;;;;;;;1.70;86.50;147749.56;5006188;28;20076;-68
2023/03/14 06:40:19;;;;;;;8.32;4.90;;;;;;;1.78;85.60;147768.69;5043732;28;20021;-68
2023/03/14 06:42:45;;;;;;;5.43;4.50;;;;;;;1.79;84.49;147771.19;5027463;28;20052;-69
2023/03/14 06:45:11;;;;;;;6.40;4.40;;;;;;;1.93;84.57;147804.34;5012135;28;20037;-69
2023/03/14 06:47:38;;;;;;;7.78;4.85;;;;;;;1.90;84.30;147799.22;5010848;28;20145;-70
2023/03/14 06:50:05;;;;;;;6.47;4.35;;;;;;;2.01;83.99;147824.69;5021081;28;20037;-69
2023/03/14 06:52:30;;;;;;;5.80;4.15;;;;;;;1.96;84.16;147811.97;5003761;28;20045;-70
2023/03/14 06:54:56;;;;;;;8.52;4.60;;;;;;;2.04;83.32;147832.34;5021489;28;20037;-68
2023/03/14 06:57:24;;;;;;;7.57;4.78;;;;;;;2.14;83.26;147856.53;5035927;28;20033;-68
2023/03/14 06:59:56;;;;;;;6.97;4.18;;;;;;;2.19;82.59;147870.53;5034477;28;20025;-68
2023/03/14 07:02:23;;;;;;;6.18;4.20;;;;;;;2.18;82.92;147866.72;5023337;28;20113;-70
2023/03/14 07:04:48;;;;;;;6.82;4.43;;;;;;;2.33;82.30;147903.69;5023136;28;20033;-69
2023/03/14 07:07:14;;;;;;;8.65;4.50;;;;;;;2.33;82.72;147903.69;5023246;28;20049;-68
2023/03/14 07:09:39;;;;;;;6.70;4.15;;;;;;;2.39;82.05;147920.25;5008217;28;20057;-69
2023/03/14 07:12:05;;;;;;;7.20;4.78;;;;;;;2.48;81.15;147941.91;5013997;28;20033;-70
2023/03/14 07:14:31;;;;;;;6.03;4.28;;;;;;;2.50;80.71;147946.97;5028621;28;20034;-68
2023/03/14 07:16:59;;;;;;;10.52;4.85;;;;;;;2.53;81.39;147953.34;5042408;28;20033;-69
2023/03/14 07:19:25;;;;;;;7.40;4.10;;;;;;;2.48;82.00;147941.91;5042656;28;20094;-69
2023/03/14 07:21:50;;;;;;;8.30;4.53;;;;;;;2.51;81.60;147949.53;5026235;28;20022;-69
2023/03/14 07:24:19;;;;;;;7.20;4.75;;;;;;;2.41;81.77;147924.06;5021261;28;20033;-70
2023/03/14 07:26:54;;;;;;;8.20;4.43;;;;;;;2.59;81.28;147968.63;5013858;28;20038;-68
2023/03/14 07:29:20;;;;;;;8.77;4.80;;;;;;;2.74;80.36;148005.59;5007124;28;20041;-67
2023/03/14 07:31:45;;;;;;;9.55;4.72;;;;;;;2.71;79.43;147997.97;5034823;28;20029;-69
2023/03/14 07:34:11;;;;;;;10.27;4.50;;;;;;;2.76;79.00;148010.69;5023047;28;20218;-69
2023/03/14 07:36:36;;;;;;;7.20;4.70;;;;;;;2.68;80.03;147991.59;5038212;28;20217;-69
2023/03/14 07:39:23;;;;;;;8.50;4.55;;;;;;;2.69;79.42;147994.09;5046680;28;20111;-69
2023/03/14 07:41:51;;;;;;;7.32;4.75;;;;;;;2.68;79.35;147990.28;5045829;28;20033;-68
2023/03/14 07:44:20;;;;;;;6.07;4.65;;;;;;;2.78;78.91;148015.81;5045490;28;20320;-69
2023/03/14 07:46:48;;;;;;;7.50;4.65;;;;;;;2.80;79.35;148020.88;5046087;28;20025;-68
2023/03/14 07:49:14;;;;;;;7.03;4.95;;;;;;;2.86;79.18;148036.16;5046429;28;20062;-68
2023/03/14 07:51:39;;;;;;;6.07;4.60;;;;;;;2.86;78.50;148036.16;5046422;28;20029;-69
2023/03/14 07:54:05;;;;;;;12.50;5.10;;;;;;;2.91;79.85;148048.94;5046333;28;20058;-68
2023/03/14 07:56:31;;;;;;;8.45;4.47;;;;;;;2.87;78.37;148038.72;5040488;28;20531;-69
2023/03/14 07:58:57;;;;;;;6.35;4.28;;;;;;;2.93;78.14;148052.75;5020040;28;20030;-68
2023/03/14 08:01:23;;;;;;;7.22;5.18;;;;;;;2.93;78.05;148052.75;5006465;28;20028;-68
2023/03/14 08:03:57;;;;;;;8.75;5.07;;;;;;;2.98;79.02;148064.22;5022635;28;20219;-70
2023/03/14 08:06:22;;;;;;;6.05;4.53;;;;;;;3.02;76.70;148075.72;5038649;28;20071;-69
2023/03/14 08:08:48;;;;;;;11.38;5.13;;;;;;;3.07;77.51;148088.44;5046162;28;20037;-71
2023/03/14 08:11:13;;;;;;;7.35;4.10;;;;;;;3.03;77.34;148076.97;5043054;28;20203;-68
2023/03/14 08:13:39;;;;;;;6.70;4.22;;;;;;;3.13;76.81;148101.19;5026501;28;20048;-67
2023/03/14 08:16:11;;;;;;;9.55;4.40;;;;;;;3.06;77.82;148085.88;5008445;28;20030;-67
2023/03/14 08:18:36;;;;;;;11.55;4.60;;;;;;;3.14;78.70;148103.75;5020895;28;20349;-67
2023/03/14 08:21:02;;;;;;;7.45;3.95;;;;;;;3.13;78.44;148101.19;5016708;28;20030;-68
2023/03/14 08:23:27;;;;;;;7.90;4.60;;;;;;;3.12;79.60;148099.91;5011206;28;20048;-68
2023/03/14 08:25:53;;;;;;;6.95;4.35;;;;;;;3.10;79.01;148094.81;5026222;28;20041;-67
2023/03/14 08:28:18;;;;;;;8.50;4.38;;;;;;;3.18;79.61;148115.22;5006399;28;20026;-68
2023/03/14 08:30:44;;;;;;;8.52;5.05;;;;;;;3.11;79.81;148097.38;5031935;28;20025;-69
2023/03/14 08:33:10;;;;;;;7.03;4.32;;;;;;;3.15;79.93;148107.59;5035026;28;20042;-68
2023/03/14 08:35:38;;;;;;;8.48;4.82;;;;;;;3.21;80.62;148121.59;5015514;28;20041;-68
2023/03/14 08:38:03;;;;;;;10.15;4.35;;;;;;;3.13;80.53;148102.47;5023314;28;20026;-67
2023/03/14 08:40:29;;;;;;;6.93;4.55;;;;;;;3.18;81.39;148113.91;5006138;28;20238;-68
2023/03/14 08:42:54;;;;;;;6.30;4.40;;;;;;;3.19;81.16;148117.78;5022608;28;20097;-70
2023/03/14 08:45:20;;;;;;;10.00;4.85;;;;;;;3.12;81.88;148099.91;5013257;28;20098;-68
2023/03/14 08:47:46;;;;;;;6.50;4.30;;;;;;;3.16;81.72;148108.84;5013184;28;20211;-69
2023/03/14 08:50:12;;;;;;;14.90;4.60;;;;;;;3.15;80.60;148106.28;5024423;28;20115;-68
2023/03/14 08:52:40;;;;;;;7.03;4.70;;;;;;;3.16;81.24;148108.84;5025786;28;20036;-67
2023/03/14 08:55:07;;;;;;;5.82;4.63;;;;;;;3.25;81.25;148133.06;5020960;28;20046;-67
2023/03/14 08:57:33;;;;;;;5.82;4.25;;;;;;;3.22;80.72;148124.13;5025409;28;20037;-69
2023/03/14 08:59:58;;;;;;;9.68;4.32;;;;;;;3.23;80.35;148126.69;5025902;28;20112;-69
2023/03/14 09:02:25;;;;;;;7.70;4.40;;;;;;;3.26;81.28;148135.63;5022061;28;20191;-67
2023/03/14 09:04:52;;;;;;;7.13;4.60;;;;;;;3.33;79.96;148152.16;5025679;28;20358;-68
2023/03/14 09:07:18;;;;;;;8.80;4.60;;;;;;;3.40;79.11;148170.03;5025225;28;20310;-69
2023/03/14 09:09:44;;;;;;;8.18;4.60;;;;;;;3.50;76.95;148194.25;5010495;28;20030;-69
2023/03/14 09:12:10;;;;;;;7.85;4.88;;;;;;;3.58;76.90;148214.66;5015826;28;20037;-68
2023/03/14 09:14:35;;;;;;;7.07;4.45;;;;;;;3.60;76.00;148219.75;5019960;28;20030;-69
2023/03/14 09:17:07;;;;;;;7.95;4.38;;;;;;;3.66;75.19;148233.78;5006247;28;20034;-70
2023/03/14 09:19:33;;;;;;;6.38;4.32;;;;;;;3.75;75.09;148255.50;5016685;28;20133;-68
2023/03/14 09:21:59;;;;;;;7.43;4.20;;;;;;;3.78;75.52;148263.13;5021191;28;20109;-68
2023/03/14 09:24:24;;;;;;;8.90;4.60;;;;;;;3.81;74.98;148270.78;5022182;28;20037;-68
2023/03/14 09:26:50;;;;;;;7.35;4.68;;;;;;;3.82;74.05;148273.34;5027941;28;20218;-69
2023/03/14 09:29:15;;;;;;;6.72;4.40;;;;;;;3.86;72.38;148283.50;5022301;28;20044;-68
2023/03/14 09:31:41;;;;;;;9.40;4.78;;;;;;;3.96;73.66;148307.75;5027613;28;20055;-68
2023/03/14 09:34:06;;;;;;;9.55;4.75;;;;;;;3.97;72.94;148311.56;5020356;28;20275;-68
2023/03/14 09:36:37;;;;;;;7.03;4.18;;;;;;;4.00;72.02;148316.72;5037683;28;20033;-69
2023/03/14 09:39:09;;;;;;;8.02;5.00;;;;;;;4.03;71.88;148324.34;5035410;28;20025;-68
2023/03/14 09:41:46;;;;;;;8.63;4.70;;;;;;;4.09;71.40;148339.66;5020667;28;20104;-67
2023/03/14 09:44:19;;;;;;;8.07;4.78;;;;;;;4.06;71.72;148332.00;5007303;28;20093;-68
2023/03/14 09:46:50;;;;;;;6.57;4.13;;;;;;;4.08;70.51;148338.38;5022263;28;20034;-69
2023/03/14 09:49:39;;;;;;;9.90;4.78;;;;;;;4.23;71.10;148375.41;5011955;28;20251;-68
2023/03/14 09:52:13;;;;;;;11.18;4.30;;;;;;;4.27;71.84;148385.56;5022161;28;20030;-68
2023/03/14 09:54:44;;;;;;;9.23;4.47;;;;;;;4.35;70.96;148403.44;5013991;28;20030;-68
2023/03/14 09:57:23;;;;;;;8.18;4.20;;;;;;;4.25;70.35;148380.50;5016974;28;20033;-68
2023/03/14 09:59:50;;;;;;;8.65;4.15;;;;;;;4.40;70.51;148417.47;5011003;28;20036;-67
2023/03/14 10:02:22;;;;;;;10.23;4.40;;;;;;;4.44;71.84;148427.69;5024348;28;20037;-68
2023/03/14 10:04:50;;;;;;;7.82;4.30;;;;;;;4.44;70.85;148426.44;5024486;28;20030;-70
2023/03/14 10:07:25;;;;;;;6.93;4.10;;;;;;;4.48;70.25;148437.91;5018011;28;20072;-69
2023/03/14 10:09:51;;;;;;;7.28;4.10;;;;;;;4.52;70.89;148445.56;5020739;28;20222;-69
2023/03/14 10:12:18;;;;;;;7.10;4.13;;;;;;;4.59;69.97;148464.72;5013969;28;20026;-69
2023/03/14 10:14:50;;;;;;;5.70;3.53;;;;;;;4.47;69.25;148434.09;5010531;28;20125;-69
2023/03/14 10:17:26;;;;;;;6.45;4.20;;;;;;;4.57;68.66;148459.59;5020508;28;20176;-70
2023/03/14 10:19:59;;;;;;;6.90;4.13;;;;;;;4.54;69.35;148451.94;5004246;28;20034;-68
2023/03/14 10:22:29;;;;;;;8.32;4.50;;;;;;;4.57;71.45;148459.59;5023397;28;20033;-68
2023/03/14 10:25:04;;;;;;;5.90;4.13;;;;;;;4.45;72.41;148429.00;5018589;28;20073;-68
2023/03/14 10:27:36;;;;;;;7.13;4.47;;;;;;;4.58;74.10;148460.91;5009897;28;20046;-69
2023/03/14 10:30:08;;;;;;;10.15;5.50;;;;;;;4.42;75.32;148421.34;5011969;28;20045;-67
2023/03/14 10:32:41;;;;;;;;;;;;;;;4.50;76.79;148441.72;5037788;28;20204;-68
2023/03/14 10:35:10;;;;;;;7.80;4.97;;;;;;;4.51;76.02;148443.03;5023092;28;19947;-68
2023/03/14 10:37:47;;;;;;;9.38;4.85;;;;;;;4.40;76.63;148416.22;5006356;28;20045;-67
2023/03/14 10:40:13;;;;;;;11.18;4.75;;;;;;;4.44;74.70;148427.69;5005447;28;20080;-69
2023/03/14 10:42:46;;;;;;;7.65;5.18;;;;;;;4.35;76.73;148403.44;5017337;28;20194;-70
2023/03/14 10:45:41;;;;;;;8.23;4.63;;;;;;;4.57;75.41;148459.59;5033804;28;20021;-68
2023/03/14 10:48:19;;;;;;;8.50;4.20;;;;;;;4.59;73.79;148463.41;5034590;28;20093;-68
2023/03/14 10:51:04;;;;;;;10.20;4.85;;;;;;;4.57;71.45;148459.59;5017879;28;20045;-69
2023/03/14 10:53:55;;;;;;;7.50;5.07;;;;;;;4.76;72.07;148505.53;5007416;28;20041;-67
2023/03/14 10:56:37;;;;;;;8.48;4.43;;;;;;;4.77;72.00;148508.13;5019505;28;20283;-68
2023/03/14 10:59:25;;;;;;;7.25;4.15;;;;;;;4.83;71.85;148523.41;5003793;28;20034;-70
2023/03/14 11:02:15;;;;;;;7.22;4.70;;;;;;;4.97;70.12;148557.91;5023619;28;20092;-67
2023/03/14 11:05:04;;;;;;;7.63;4.35;;;;;;;4.97;70.30;148557.91;5013086;28;20029;-69
2023/03/14 11:07:39;;;;;;;7.10;4.45;;;;;;;4.93;70.67;148547.69;5003874;28;20052;-69
2023/03/14 11:10:26;;;;;;;10.38;4.43;;;;;;;5.03;70.62;148573.25;5019845;28;20080;-68
2023/03/14 11:13:36;;;;;;;5.57;3.92;;;;;;;5.09;70.53;148587.25;5008047;28;20040;-68
2023/03/14 11:16:08;;;;;;;8.98;4.32;;;;;;;5.24;68.88;148625.56;5019264;28;20029;-68
2023/03/14 11:18:58;;;;;;;7.30;4.45;;;;;;;5.38;69.10;148658.78;5010799;28;20034;-68
2023/03/14 11:21:42;;;;;;;6.78;4.15;;;;;;;5.43;67.79;148671.53;5014227;28;20033;-69
2023/03/14 11:24:52;;;;;;;8.73;4.20;;;;;;;5.55;66.91;148702.22;5021441;28;20034;-68
2023/03/14 11:27:42;;;;;;;9.68;4.35;;;;;;;5.51;67.43;148691.97;4998093;28;20077;-69
2023/03/14 11:30:19;;;;;;;8.35;4.40;;;;;;;5.57;66.27;148706.03;4974174;28;20030;-69
2023/03/14 11:32:53;;;;;;;6.53;4.25;;;;;;;5.60;66.68;148713.69;5030694;28;20152;-69
2023/03/14 11:35:49;;;;;;;5.97;4.55;;;;;;;5.66;66.66;148730.31;5020925;28;20340;-69
2023/03/14 11:38:32;;;;;;;9.07;4.10;;;;;;;5.64;65.90;148725.22;5004921;28;20042;-70
2023/03/14 11:41:01;;;;;;;16.02;4.57;;;;;;;5.67;65.96;148732.88;5023050;28;20106;-69
2023/03/14 11:43:41;;;;;;;6.10;4.47;;;;;;;5.55;65.81;148702.22;5003978;28;20064;-68